Time;durP1;ratioP1;P1;durP2;ratioP2;P2;SDS_P1;SDS_P2;PMS_P1;PMS_P2;Temp;Humidity;BMP_temperature;BMP_pressure;BME280_temperature;BME280_humidity;BME280_pressure;Samples;Min_cycle;Max_cycle;Signal;HPM_P1;HPM_P2
2023/06/15 00:00:48;;;;;;;28.05;25.88;;;11.80;99.90;;;;;;5082712;28;20032;-73
2023/06/15 00:03:18;;;;;;;28.70;26.50;;;11.70;99.90;;;;;;5081597;28;20754;-73
2023/06/15 00:05:46;;;;;;;27.52;25.40;;;11.50;99.90;;;;;;5083151;28;20079;-73
2023/06/15 00:08:12;;;;;;;28.95;26.58;;;11.50;99.90;;;;;;5087422;28;20112;-73
2023/06/15 00:10:39;;;;;;;27.48;25.48;;;11.40;99.90;;;;;;5065562;28;20055;-73
2023/06/15 00:13:06;;;;;;;28.60;26.17;;;11.30;99.90;;;;;;5068217;28;20040;-73
2023/06/15 00:15:33;;;;;;;29.20;26.92;;;11.30;99.90;;;;;;5080456;28;20066;-73
2023/06/15 00:17:59;;;;;;;28.50;26.05;;;11.40;99.90;;;;;;5087195;28;20719;-73
2023/06/15 00:20:28;;;;;;;28.25;25.98;;;11.20;99.90;;;;;;5064967;28;20039;-73
2023/06/15 00:22:55;;;;;;;28.48;25.90;;;11.10;99.90;;;;;;5071825;28;20063;-74
2023/06/15 00:25:22;;;;;;;27.65;25.25;;;11.10;99.90;;;;;;5084734;28;20386;-73
2023/06/15 00:27:49;;;;;;;26.80;24.67;;;11.20;99.90;;;;;;5072491;28;20055;-73
2023/06/15 00:30:16;;;;;;;26.80;24.65;;;11.30;99.90;;;;;;5081230;28;20063;-72
2023/06/15 00:32:44;;;;;;;27.80;25.60;;;11.20;99.90;;;;;;5049955;28;20039;-72
2023/06/15 00:35:10;;;;;;;27.35;25.17;;;11.20;99.90;;;;;;5070931;28;20094;-72
2023/06/15 00:37:37;;;;;;;27.23;24.92;;;11.10;99.90;;;;;;5080345;28;20032;-72
2023/06/15 00:40:06;;;;;;;26.60;24.55;;;11.10;99.90;;;;;;5073041;28;20050;-73
2023/06/15 00:42:32;;;;;;;26.30;24.40;;;10.90;99.90;;;;;;5061901;28;20127;-73
2023/06/15 00:44:59;;;;;;;26.63;24.55;;;10.80;99.90;;;;;;5073209;28;20061;-73
2023/06/15 00:47:26;;;;;;;26.77;24.67;;;10.70;99.90;;;;;;5064618;28;20105;-74
2023/06/15 00:49:53;;;;;;;27.48;25.00;;;10.70;99.90;;;;;;5072228;28;20049;-73
2023/06/15 00:52:22;;;;;;;27.52;25.23;;;10.60;99.90;;;;;;5061876;28;20044;-73
2023/06/15 00:54:50;;;;;;;27.48;25.35;;;10.60;99.90;;;;;;5065116;28;20063;-73
2023/06/15 00:57:18;;;;;;;27.95;25.75;;;10.60;99.90;;;;;;5070753;28;20066;-73
2023/06/15 00:59:45;;;;;;;26.92;24.77;;;10.40;99.90;;;;;;5063642;28;20036;-73
2023/06/15 01:02:12;;;;;;;26.98;24.98;;;10.60;99.90;;;;;;5071775;28;20543;-73
2023/06/15 01:04:40;;;;;;;27.05;24.50;;;10.50;99.90;;;;;;5062497;28;20055;-73
2023/06/15 01:07:10;;;;;;;26.52;24.58;;;10.50;99.90;;;;;;5086486;28;20643;-73
2023/06/15 01:09:40;;;;;;;27.15;24.90;;;10.50;99.90;;;;;;5079023;28;20048;-74
2023/06/15 01:12:12;;;;;;;25.88;23.98;;;10.50;99.90;;;;;;5053408;28;20040;-73
2023/06/15 01:14:40;;;;;;;25.50;23.67;;;10.50;99.90;;;;;;5061851;28;20059;-72
2023/06/15 01:17:13;;;;;;;25.70;23.60;;;10.60;99.90;;;;;;5069715;28;20093;-72
2023/06/15 01:20:04;;;;;;;26.35;24.23;;;10.50;99.90;;;;;;5079423;28;20043;-73
2023/06/15 01:22:35;;;;;;;27.45;25.23;;;10.50;99.90;;;;;;5078050;28;20512;-73
2023/06/15 01:25:06;;;;;;;25.98;23.75;;;10.40;99.90;;;;;;5052701;28;20040;-72
2023/06/15 01:27:34;;;;;;;24.83;22.85;;;10.40;99.90;;;;;;5082604;28;20042;-73
2023/06/15 01:30:04;;;;;;;26.13;23.98;;;10.50;99.90;;;;;;5058319;28;20035;-75
2023/06/15 01:32:33;;;;;;;27.15;24.80;;;10.40;99.90;;;;;;5066549;28;20595;-74
2023/06/15 01:35:00;;;;;;;26.70;24.55;;;10.40;99.90;;;;;;5078545;28;20099;-74
2023/06/15 01:37:28;;;;;;;26.65;24.40;;;10.20;99.90;;;;;;5067549;28;20067;-74
2023/06/15 01:39:55;;;;;;;26.73;24.50;;;10.30;99.90;;;;;;5057872;28;20040;-74
2023/06/15 01:42:23;;;;;;;27.15;24.95;;;10.30;99.90;;;;;;5058763;28;20417;-74
2023/06/15 01:44:53;;;;;;;27.00;24.92;;;10.20;99.90;;;;;;5074148;28;21145;-74
2023/06/15 01:47:20;;;;;;;26.58;24.38;;;10.20;99.90;;;;;;5086782;28;20051;-74
2023/06/15 01:49:47;;;;;;;25.70;23.60;;;10.30;99.90;;;;;;5052087;28;20047;-74
2023/06/15 01:52:15;;;;;;;25.50;23.58;;;10.30;99.90;;;;;;5081510;28;20055;-74
2023/06/15 01:54:42;;;;;;;27.38;24.92;;;10.30;99.90;;;;;;5064261;28;20056;-74
2023/06/15 01:57:10;;;;;;;25.23;23.33;;;10.30;99.90;;;;;;5066712;28;20043;-75
2023/06/15 01:59:37;;;;;;;24.58;22.77;;;10.00;99.90;;;;;;5066407;28;20546;-74
2023/06/15 02:02:04;;;;;;;26.88;24.40;;;10.00;99.90;;;;;;5075393;28;20713;-74
2023/06/15 02:04:30;;;;;;;25.13;23.15;;;9.90;99.90;;;;;;5070805;28;20123;-74
2023/06/15 02:06:59;;;;;;;26.00;23.90;;;9.80;99.90;;;;;;5085631;28;20525;-74
2023/06/15 02:09:26;;;;;;;25.70;23.80;;;9.80;99.90;;;;;;5069188;28;20044;-74
2023/06/15 02:11:53;;;;;;;25.50;23.30;;;9.80;99.90;;;;;;5073326;28;20807;-74
2023/06/15 02:14:23;;;;;;;24.52;22.35;;;9.90;99.90;;;;;;5073937;28;20047;-74
2023/06/15 02:16:50;;;;;;;24.48;22.42;;;9.90;99.90;;;;;;5084515;28;20121;-74
2023/06/15 02:19:21;;;;;;;24.85;23.02;;;9.90;99.90;;;;;;5060645;28;20044;-74
2023/06/15 02:21:49;;;;;;;25.60;23.05;;;9.90;99.90;;;;;;5069954;28;20040;-74
2023/06/15 02:24:16;;;;;;;24.15;22.33;;;9.80;99.90;;;;;;5069241;28;20742;-74
2023/06/15 02:26:44;;;;;;;25.25;23.00;;;9.70;99.90;;;;;;5085004;28;20085;-74
2023/06/15 02:29:10;;;;;;;26.70;23.95;;;9.80;99.90;;;;;;5054766;28;20131;-74
2023/06/15 02:31:37;;;;;;;24.27;22.48;;;9.80;99.90;;;;;;5068509;28;20039;-74
2023/06/15 02:34:05;;;;;;;25.80;23.23;;;9.90;99.90;;;;;;5073606;28;20044;-74
2023/06/15 02:36:34;;;;;;;23.77;22.02;;;9.90;99.90;;;;;;5074552;28;20036;-74
2023/06/15 02:39:02;;;;;;;24.50;22.42;;;9.80;99.90;;;;;;5073907;28;20063;-74
2023/06/15 02:41:29;;;;;;;24.35;22.33;;;9.90;99.90;;;;;;5052447;28;20033;-74
2023/06/15 02:43:56;;;;;;;25.27;23.05;;;10.00;99.90;;;;;;5068617;28;20035;-74
2023/06/15 02:46:23;;;;;;;23.77;21.58;;;10.00;99.90;;;;;;5064636;28;20032;-74
2023/06/15 02:48:51;;;;;;;24.13;21.60;;;9.90;99.90;;;;;;5073365;28;20118;-74
2023/06/15 02:51:20;;;;;;;23.85;21.95;;;9.90;99.90;;;;;;5072852;28;20513;-73
2023/06/15 02:53:47;;;;;;;23.88;21.42;;;9.70;99.90;;;;;;5069966;28;20462;-73
2023/06/15 02:56:21;;;;;;;23.90;22.10;;;9.60;99.90;;;;;;5068815;28;20043;-74
2023/06/15 02:58:53;;;;;;;23.52;21.42;;;9.60;99.90;;;;;;5059797;28;20341;-74
2023/06/15 03:01:38;;;;;;;23.88;22.17;;;9.70;99.90;;;;;;5069407;28;20147;-74
2023/06/15 03:04:14;;;;;;;23.80;21.65;;;9.50;99.90;;;;;;5076239;28;20071;-74
2023/06/15 03:06:44;;;;;;;24.77;22.52;;;9.60;99.90;;;;;;5069511;28;20055;-74
2023/06/15 03:09:20;;;;;;;25.25;22.75;;;9.70;99.90;;;;;;5076657;28;20134;-74
2023/06/15 03:11:47;;;;;;;25.55;23.50;;;9.60;99.90;;;;;;5051100;28;20054;-73
2023/06/15 03:14:19;;;;;;;23.35;21.65;;;9.60;99.90;;;;;;5064855;28;20433;-74
2023/06/15 03:16:47;;;;;;;24.65;22.33;;;9.60;99.90;;;;;;5082680;28;20054;-73
2023/06/15 03:19:15;;;;;;;23.58;21.58;;;9.50;99.90;;;;;;5074848;28;20129;-74
2023/06/15 03:21:46;;;;;;;22.15;20.55;;;9.40;99.90;;;;;;5064863;28;20067;-73
2023/06/15 03:24:13;;;;;;;23.55;21.85;;;9.30;99.90;;;;;;5073160;28;20043;-74
2023/06/15 03:26:42;;;;;;;23.95;22.10;;;9.30;99.90;;;;;;5069045;28;20040;-74
2023/06/15 03:29:09;;;;;;;24.70;22.73;;;9.30;99.90;;;;;;5072031;28;20048;-73
2023/06/15 03:31:40;;;;;;;23.92;22.13;;;9.30;99.90;;;;;;5070476;28;20044;-74
2023/06/15 03:34:08;;;;;;;26.88;24.40;;;9.30;99.90;;;;;;5074743;28;20126;-74
2023/06/15 03:36:35;;;;;;;24.63;22.73;;;9.20;99.90;;;;;;5074131;28;20039;-74
2023/06/15 03:39:03;;;;;;;27.17;25.00;;;9.20;99.90;;;;;;5076428;28;20067;-74
2023/06/15 03:41:30;;;;;;;25.35;23.25;;;9.20;99.90;;;;;;5050715;28;20042;-74
2023/06/15 03:43:57;;;;;;;25.05;23.08;;;9.10;99.90;;;;;;5050652;28;20043;-74
2023/06/15 03:46:25;;;;;;;23.98;22.23;;;9.30;99.90;;;;;;5068986;28;20047;-74
2023/06/15 03:48:52;;;;;;;25.00;23.10;;;9.20;99.90;;;;;;5069391;28;20050;-74
2023/06/15 03:51:19;;;;;;;25.17;22.77;;;9.40;99.90;;;;;;5055165;28;20104;-73
2023/06/15 03:53:46;;;;;;;24.00;21.80;;;9.50;99.90;;;;;;5066942;28;20048;-74
2023/06/15 03:56:13;;;;;;;22.65;20.75;;;9.60;99.90;;;;;;5068429;28;20063;-74
2023/06/15 03:58:40;;;;;;;22.58;20.77;;;9.60;99.90;;;;;;5062877;28;20136;-74
2023/06/15 04:01:07;;;;;;;22.77;21.08;;;9.50;99.90;;;;;;5070864;28;20039;-73
2023/06/15 04:03:34;;;;;;;24.98;22.77;;;9.50;99.90;;;;;;5066550;28;20361;-74
2023/06/15 04:06:06;;;;;;;22.83;20.83;;;9.60;99.90;;;;;;5056374;28;20036;-74
2023/06/15 04:08:35;;;;;;;22.17;20.02;;;9.60;99.90;;;;;;5066263;28;20739;-74
2023/06/15 04:11:02;;;;;;;23.02;21.17;;;9.60;99.90;;;;;;5063545;28;20607;-73
2023/06/15 04:13:29;;;;;;;24.17;22.15;;;9.70;99.90;;;;;;5056370;28;20063;-73
2023/06/15 04:15:56;;;;;;;23.73;21.88;;;9.70;99.90;;;;;;5067173;28;20039;-73
2023/06/15 04:18:24;;;;;;;24.23;22.25;;;9.60;99.90;;;;;;5066445;28;20040;-74
2023/06/15 04:20:52;;;;;;;24.83;22.83;;;9.60;99.90;;;;;;5067770;28;20679;-73
2023/06/15 04:23:20;;;;;;;23.25;21.23;;;9.70;99.90;;;;;;5066421;28;20675;-73
2023/06/15 04:25:48;;;;;;;23.50;21.08;;;9.90;99.90;;;;;;5068323;28;20046;-73
2023/06/15 04:28:16;;;;;;;24.00;21.95;;;10.00;99.90;;;;;;5052398;28;20085;-73
2023/06/15 04:30:47;;;;;;;23.73;21.73;;;10.00;99.90;;;;;;5064332;28;20067;-73
2023/06/15 04:33:16;;;;;;;24.90;22.98;;;10.30;99.90;;;;;;5066459;28;20058;-73
2023/06/15 04:35:46;;;;;;;25.23;23.30;;;10.50;99.90;;;;;;5079128;28;20101;-73
2023/06/15 04:38:16;;;;;;;27.08;24.83;;;10.90;99.90;;;;;;5063654;28;20050;-73
2023/06/15 04:40:48;;;;;;;28.15;25.92;;;11.60;99.90;;;;;;5063208;28;20054;-74
2023/06/15 04:43:15;;;;;;;28.10;26.00;;;12.00;99.90;;;;;;5068319;28;20043;-73
2023/06/15 04:45:43;;;;;;;30.23;27.73;;;12.20;99.90;;;;;;5049683;28;20050;-74
2023/06/15 04:48:12;;;;;;;30.02;27.65;;;12.30;99.90;;;;;;5056964;28;20666;-73
2023/06/15 04:50:47;;;;;;;30.40;27.73;;;12.60;99.90;;;;;;5068876;28;20044;-74
2023/06/15 04:53:18;;;;;;;31.50;28.98;;;12.80;99.90;;;;;;5072609;28;20108;-74
2023/06/15 04:55:47;;;;;;;32.83;30.13;;;13.00;99.90;;;;;;5061955;28;20056;-74
2023/06/15 04:58:14;;;;;;;32.65;29.88;;;13.30;99.90;;;;;;5072806;28;20036;-74
2023/06/15 05:00:42;;;;;;;33.20;30.60;;;13.60;99.90;;;;;;5064675;28;20051;-73
2023/06/15 05:03:11;;;;;;;32.78;30.23;;;13.90;99.90;;;;;;5070665;28;20040;-73
2023/06/15 05:05:39;;;;;;;33.50;30.83;;;14.20;99.90;;;;;;5064135;28;20051;-73
2023/06/15 05:08:06;;;;;;;32.97;30.48;;;14.50;99.90;;;;;;5057518;28;20054;-73
2023/06/15 05:10:32;;;;;;;33.95;31.25;;;14.90;99.90;;;;;;5070618;28;20135;-73
2023/06/15 05:13:13;;;;;;;33.85;31.13;;;15.30;99.90;;;;;;5072555;28;20044;-73
2023/06/15 05:15:40;;;;;;;32.92;30.48;;;15.70;99.90;;;;;;5054091;28;20044;-72
2023/06/15 05:18:08;;;;;;;32.65;30.08;;;16.10;99.90;;;;;;5060945;28;20544;-74
2023/06/15 05:20:36;;;;;;;32.10;29.40;;;16.30;99.90;;;;;;5070327;28;20036;-74
2023/06/15 05:23:02;;;;;;;33.50;30.52;;;16.40;99.90;;;;;;5072960;28;20168;-73
2023/06/15 05:25:29;;;;;;;33.10;30.60;;;16.50;99.90;;;;;;5073271;28;21340;-73
2023/06/15 05:27:56;;;;;;;34.45;31.60;;;16.60;99.90;;;;;;5063661;28;20044;-73
2023/06/15 05:30:26;;;;;;;33.20;30.45;;;16.90;99.90;;;;;;5070930;28;20063;-74
2023/06/15 05:32:53;;;;;;;32.70;30.02;;;17.00;99.90;;;;;;5043785;28;20663;-74
2023/06/15 05:35:21;;;;;;;33.28;30.45;;;16.90;99.90;;;;;;5069792;28;20584;-73
2023/06/15 05:37:48;;;;;;;33.47;30.80;;;17.20;99.90;;;;;;5082709;28;20068;-74
2023/06/15 05:40:15;;;;;;;34.05;31.35;;;17.50;99.90;;;;;;5074979;28;20040;-73
2023/06/15 05:42:42;;;;;;;33.25;30.75;;;17.80;99.90;;;;;;5087399;28;20116;-73
2023/06/15 05:45:09;;;;;;;33.58;30.88;;;18.10;99.90;;;;;;5085074;28;20054;-74
2023/06/15 05:47:37;;;;;;;34.25;31.42;;;18.60;99.90;;;;;;5065530;28;20870;-74
2023/06/15 05:50:04;;;;;;;34.63;31.75;;;18.70;99.90;;;;;;5085921;28;21334;-74
2023/06/15 05:52:32;;;;;;;34.58;31.90;;;19.00;99.90;;;;;;5071663;28;20040;-73
2023/06/15 05:54:59;;;;;;;36.47;33.53;;;19.40;99.90;;;;;;5067348;28;20055;-73
2023/06/15 05:57:26;;;;;;;34.65;31.75;;;19.80;99.90;;;;;;5086020;28;20047;-74
2023/06/15 05:59:54;;;;;;;34.90;32.20;;;20.10;99.90;;;;;;5063920;28;20044;-73
2023/06/15 06:02:23;;;;;;;35.22;32.40;;;20.20;99.90;;;;;;5053367;28;20048;-73
2023/06/15 06:04:53;;;;;;;35.17;32.35;;;20.30;99.90;;;;;;5069337;28;20071;-74
2023/06/15 06:07:20;;;;;;;35.67;32.72;;;20.20;99.90;;;;;;5058062;28;20036;-73
2023/06/15 06:09:47;;;;;;;36.35;33.65;;;20.40;99.90;;;;;;5089602;28;20043;-74
2023/06/15 06:12:15;;;;;;;35.70;33.05;;;20.50;99.90;;;;;;5073419;28;20046;-74
2023/06/15 06:14:43;;;;;;;36.08;33.40;;;20.80;99.90;;;;;;5068175;28;20050;-74
2023/06/15 06:17:09;;;;;;;36.20;33.15;;;21.00;99.90;;;;;;5070884;28;20096;-74
2023/06/15 06:19:38;;;;;;;36.50;33.85;;;21.30;99.90;;;;;;5068365;28;20101;-74
2023/06/15 06:22:08;;;;;;;36.38;33.53;;;21.60;99.90;;;;;;5082391;28;20069;-74
2023/06/15 06:24:35;;;;;;;36.35;33.78;;;21.90;99.90;;;;;;5059068;28;20062;-74
2023/06/15 06:27:04;;;;;;;36.15;33.55;;;22.00;99.90;;;;;;5068321;28;20032;-74
2023/06/15 06:29:31;;;;;;;37.58;34.40;;;21.90;99.90;;;;;;5058137;28;20572;-73
2023/06/15 06:31:58;;;;;;;37.30;34.50;;;21.60;99.90;;;;;;5066813;28;20040;-73
2023/06/15 06:34:24;;;;;;;36.58;33.70;;;21.30;99.90;;;;;;5087449;28;20044;-73
2023/06/15 06:36:51;;;;;;;37.25;34.58;;;21.20;99.90;;;;;;5071791;28;20088;-74
2023/06/15 06:39:18;;;;;;;37.92;35.08;;;21.30;99.90;;;;;;5071342;28;20101;-73
2023/06/15 06:41:45;;;;;;;39.20;36.10;;;21.50;99.90;;;;;;5066933;28;20044;-74
2023/06/15 06:44:14;;;;;;;38.35;35.72;;;22.00;99.90;;;;;;5054732;28;20058;-74
2023/06/15 06:46:41;;;;;;;41.00;37.95;;;22.10;99.90;;;;;;5087733;28;20654;-73
2023/06/15 06:49:08;;;;;;;41.22;38.33;;;21.30;99.90;;;;;;5085106;28;20082;-73
2023/06/15 06:51:36;;;;;;;42.10;39.10;;;21.00;99.90;;;;;;5084054;28;20689;-71
2023/06/15 06:54:02;;;;;;;41.90;38.80;;;20.20;99.90;;;;;;5071590;28;20044;-71
2023/06/15 06:56:29;;;;;;;41.50;38.50;;;19.90;99.90;;;;;;5090333;28;20047;-71
2023/06/15 06:58:56;;;;;;;41.00;37.55;;;20.30;99.90;;;;;;5084043;28;20529;-72
2023/06/15 07:01:24;;;;;;;39.55;36.75;;;20.50;99.90;;;;;;5089890;28;20035;-72
2023/06/15 07:03:50;;;;;;;41.42;38.28;;;21.30;99.90;;;;;;5087892;28;20065;-70
2023/06/15 07:06:17;;;;;;;39.97;37.08;;;21.50;99.90;;;;;;5074749;28;20047;-72
2023/06/15 07:08:44;;;;;;;42.13;39.42;;;21.50;99.90;;;;;;5080298;28;20043;-72
2023/06/15 07:11:11;;;;;;;42.22;39.28;;;21.50;99.90;;;;;;5086122;28;20510;-73
2023/06/15 07:13:37;;;;;;;43.75;40.75;;;21.40;99.90;;;;;;5073594;28;20060;-73
2023/06/15 07:16:06;;;;;;;44.05;41.05;;;21.40;99.90;;;;;;5085111;28;20043;-72
2023/06/15 07:18:33;;;;;;;45.97;42.75;;;21.80;99.90;;;;;;5086399;28;20504;-72
2023/06/15 07:21:00;;;;;;;44.65;41.45;;;22.00;99.90;;;;;;5068000;28;21156;-73
2023/06/15 07:23:27;;;;;;;43.13;40.05;;;21.40;99.90;;;;;;5073050;28;20036;-73
2023/06/15 07:26:10;;;;;;;40.40;37.30;;;21.30;99.90;;;;;;5086096;28;20152;-72
2023/06/15 07:28:37;;;;;;;41.95;38.97;;;20.70;99.90;;;;;;5087241;28;20385;-71
2023/06/15 07:31:03;;;;;;;40.60;37.85;;;20.40;99.90;;;;;;5064112;28;20044;-72
2023/06/15 07:33:30;;;;;;;44.20;41.25;;;20.40;99.90;;;;;;5074109;28;20032;-72
2023/06/15 07:35:57;;;;;;;42.17;39.22;;;20.20;99.90;;;;;;5083727;28;20397;-71
2023/06/15 07:38:24;;;;;;;45.22;41.95;;;20.20;99.90;;;;;;5066871;28;20134;-72
2023/06/15 07:40:51;;;;;;;44.80;41.70;;;20.10;99.90;;;;;;5086714;28;20039;-71
2023/06/15 07:43:19;;;;;;;46.08;42.97;;;20.50;99.90;;;;;;5072124;28;20055;-72
2023/06/15 07:45:46;;;;;;;44.13;41.20;;;20.90;99.90;;;;;;5067757;28;20143;-72
2023/06/15 07:48:13;;;;;;;45.92;43.03;;;21.30;99.90;;;;;;5071977;28;20043;-72
2023/06/15 07:50:40;;;;;;;47.45;44.13;;;21.70;99.90;;;;;;5071753;28;20052;-71
2023/06/15 07:53:06;;;;;;;45.47;42.58;;;21.90;99.90;;;;;;5082003;28;20127;-72
2023/06/15 07:55:33;;;;;;;44.80;42.10;;;21.60;99.90;;;;;;5091710;28;20088;-72
2023/06/15 07:58:00;;;;;;;45.83;42.65;;;21.60;99.90;;;;;;5079855;28;20047;-72
2023/06/15 08:00:27;;;;;;;47.67;44.50;;;22.10;99.90;;;;;;5086520;28;20051;-72
2023/06/15 08:02:59;;;;;;;42.83;40.13;;;22.80;99.90;;;;;;5077425;28;20051;-73
2023/06/15 08:05:27;;;;;;;45.70;42.80;;;22.20;99.90;;;;;;5066815;28;20066;-72
2023/06/15 08:07:53;;;;;;;42.47;39.55;;;21.90;99.90;;;;;;5069919;28;20036;-72
2023/06/15 08:10:21;;;;;;;41.80;39.03;;;22.40;99.90;;;;;;5069952;28;20051;-72
2023/06/15 08:12:48;;;;;;;46.28;43.22;;;22.50;99.90;;;;;;5070039;28;20152;-72
2023/06/15 08:15:15;;;;;;;45.88;42.97;;;22.70;99.90;;;;;;5054679;28;20109;-72
2023/06/15 08:17:41;;;;;;;46.88;43.83;;;22.00;99.90;;;;;;5085068;28;20109;-71
2023/06/15 08:20:09;;;;;;;45.22;42.42;;;21.60;99.90;;;;;;5083479;28;20643;-72
2023/06/15 08:22:36;;;;;;;47.88;44.30;;;21.50;99.90;;;;;;5068593;28;20544;-71
2023/06/15 08:25:04;;;;;;;48.70;45.40;;;21.70;99.90;;;;;;5083772;28;20077;-72
2023/06/15 08:27:31;;;;;;;48.05;44.92;;;21.60;99.90;;;;;;5070769;28;20028;-72
2023/06/15 08:29:57;;;;;;;42.90;40.00;;;21.60;99.90;;;;;;5076122;28;20051;-72
2023/06/15 08:32:24;;;;;;;42.15;39.28;;;21.90;99.90;;;;;;5072557;28;20044;-71
2023/06/15 08:34:52;;;;;;;44.00;40.83;;;22.00;99.90;;;;;;5088453;28;20051;-71
2023/06/15 08:37:18;;;;;;;42.42;39.60;;;21.40;99.90;;;;;;5066471;28;20067;-71
2023/06/15 08:39:45;;;;;;;42.10;38.88;;;21.00;99.90;;;;;;5068839;28;20051;-72
2023/06/15 08:42:13;;;;;;;43.45;40.60;;;21.00;99.90;;;;;;5063660;28;20661;-72
2023/06/15 08:44:40;;;;;;;43.75;40.72;;;21.20;99.90;;;;;;5083278;28;20564;-72
2023/06/15 08:47:08;;;;;;;44.72;41.80;;;21.50;99.90;;;;;;5067508;28;20120;-71
2023/06/15 08:49:35;;;;;;;45.03;42.13;;;22.10;99.90;;;;;;5085333;28;20044;-71
2023/06/15 08:52:02;;;;;;;44.30;41.30;;;21.80;99.90;;;;;;5061601;28;21841;-71
2023/06/15 08:54:33;;;;;;;45.67;42.50;;;22.20;99.90;;;;;;5070227;28;20202;-72
2023/06/15 08:57:00;;;;;;;42.55;39.92;;;22.90;99.90;;;;;;5079873;28;20051;-71
2023/06/15 08:59:29;;;;;;;44.33;41.33;;;23.00;99.90;;;;;;5086666;28;20153;-72
2023/06/15 09:01:59;;;;;;;48.88;45.47;;;21.90;99.90;;;;;;5082451;28;20040;-71
2023/06/15 09:04:27;;;;;;;45.63;42.38;;;21.50;99.90;;;;;;5084863;28;20711;-71
2023/06/15 09:06:57;;;;;;;46.03;43.20;;;22.10;99.90;;;;;;5066886;28;20575;-71
2023/06/15 09:09:23;;;;;;;46.88;43.70;;;22.20;99.90;;;;;;5072666;28;20040;-72
2023/06/15 09:11:50;;;;;;;52.05;48.67;;;22.20;99.90;;;;;;5078286;28;20699;-72
2023/06/15 09:14:17;;;;;;;48.25;45.00;;;22.80;99.90;;;;;;5066032;28;20102;-72
2023/06/15 09:16:44;;;;;;;47.88;44.67;;;23.30;99.90;;;;;;5067376;28;20452;-72
2023/06/15 09:19:11;;;;;;;44.30;41.45;;;22.70;99.90;;;;;;5081931;28;20071;-72
2023/06/15 09:21:48;;;;;;;43.15;40.15;;;22.50;99.90;;;;;;5064695;28;20128;-71
2023/06/15 09:24:16;;;;;;;48.45;45.55;;;22.30;99.90;;;;;;5068378;28;20124;-72
2023/06/15 09:26:45;;;;;;;46.50;43.13;;;22.90;99.90;;;;;;5065521;28;20524;-71
2023/06/15 09:29:12;;;;;;;44.10;41.10;;;23.10;99.90;;;;;;5064340;28;20040;-72
2023/06/15 09:31:40;;;;;;;41.72;39.13;;;23.50;99.90;;;;;;5065812;28;20039;-71
2023/06/15 09:34:10;;;;;;;41.15;38.35;;;23.80;99.90;;;;;;5082417;28;20067;-71
2023/06/15 09:36:40;;;;;;;47.05;43.95;;;22.90;99.90;;;;;;5067950;28;20131;-71
2023/06/15 09:39:11;;;;;;;45.65;42.58;;;22.00;99.90;;;;;;5066021;28;20043;-72
2023/06/15 09:42:14;;;;;;;42.97;40.08;;;22.40;99.90;;;;;;5052622;28;20036;-72
2023/06/15 09:44:42;;;;;;;44.55;41.70;;;22.80;99.90;;;;;;5006777;28;20051;-72
2023/06/15 09:47:15;;;;;;;39.55;36.85;;;22.70;99.90;;;;;;5066961;28;20098;-71
2023/06/15 09:49:44;;;;;;;40.72;37.95;;;22.70;99.90;;;;;;5061547;28;20105;-72
2023/06/15 09:52:12;;;;;;;42.53;39.72;;;22.50;99.90;;;;;;5067157;28;20105;-72
2023/06/15 09:54:39;;;;;;;42.85;39.72;;;22.30;99.90;;;;;;5077118;28;20051;-72
2023/06/15 09:57:07;;;;;;;41.35;38.58;;;22.10;99.90;;;;;;5066779;28;20072;-72
2023/06/15 09:59:34;;;;;;;41.40;38.60;;;22.40;99.90;;;;;;5074031;28;20097;-72
2023/06/15 10:02:08;;;;;;;42.75;39.97;;;22.50;99.90;;;;;;5079811;28;20719;-71
2023/06/15 10:04:40;;;;;;;46.97;43.88;;;22.10;99.90;;;;;;5071131;28;20113;-72
2023/06/15 10:07:12;;;;;;;46.63;43.55;;;22.00;99.90;;;;;;5052981;28;20135;-71
2023/06/15 10:09:57;;;;;;;45.25;42.17;;;22.20;99.90;;;;;;5084792;28;20068;-72
2023/06/15 10:12:27;;;;;;;48.53;45.55;;;22.40;99.90;;;;;;5085702;28;20044;-72
2023/06/15 10:15:09;;;;;;;46.58;43.67;;;22.90;99.90;;;;;;5071075;28;20079;-72
2023/06/15 10:17:37;;;;;;;47.22;44.30;;;23.00;99.90;;;;;;5087435;28;20051;-71
2023/06/15 10:20:17;;;;;;;45.78;42.53;;;23.80;99.90;;;;;;5084409;28;20062;-71
2023/06/15 10:22:57;;;;;;;46.40;42.85;;;24.30;99.90;;;;;;5088822;28;20044;-71
2023/06/15 10:25:25;;;;;;;42.88;39.97;;;24.70;99.90;;;;;;5087709;28;20040;-71
2023/06/15 10:27:53;;;;;;;46.67;43.47;;;24.30;98.70;;;;;;5087580;28;20385;-71
2023/06/15 10:30:55;;;;;;;48.05;44.90;;;24.00;99.90;;;;;;5072605;28;20068;-71
2023/06/15 10:33:39;;;;;;;44.58;41.72;;;24.50;99.50;;;;;;5069730;28;20106;-71
2023/06/15 10:36:17;;;;;;;44.92;42.05;;;24.60;99.90;;;;;;5079744;28;20049;-71
2023/06/15 10:38:54;;;;;;;47.17;43.90;;;24.50;98.80;;;;;;5089450;28;20062;-71
2023/06/15 10:41:21;;;;;;;45.95;43.20;;;24.50;98.20;;;;;;5069372;28;21306;-71
2023/06/15 10:44:02;;;;;;;47.08;44.20;;;24.80;98.50;;;;;;5073129;28;20044;-72
2023/06/15 10:46:37;;;;;;;47.08;43.78;;;24.80;99.80;;;;;;5072871;28;20101;-71
2023/06/15 10:49:09;;;;;;;47.38;44.38;;;25.00;99.90;;;;;;5078527;28;20056;-71
2023/06/15 10:51:41;;;;;;;43.00;40.08;;;24.80;99.20;;;;;;5086752;28;20040;-72
2023/06/15 10:54:22;;;;;;;46.13;43.00;;;24.90;96.70;;;;;;5069421;28;20328;-71
2023/06/15 10:56:50;;;;;;;51.30;48.00;;;24.60;96.70;;;;;;5088109;28;20049;-71
2023/06/15 10:59:57;;;;;;;44.65;41.85;;;24.50;97.80;;;;;;5079250;28;20526;-72
2023/06/15 11:02:27;;;;;;;44.25;41.35;;;24.50;98.20;;;;;;5088445;28;20108;-72
2023/06/15 11:05:10;;;;;;;47.95;44.55;;;24.10;97.60;;;;;;5087855;28;20039;-72
2023/06/15 11:07:40;;;;;;;48.45;45.47;;;24.10;98.10;;;;;;5087349;28;20040;-72
2023/06/15 11:10:25;;;;;;;49.03;45.75;;;24.10;96.30;;;;;;5084614;28;20085;-72
2023/06/15 11:13:06;;;;;;;48.75;45.50;;;24.50;94.30;;;;;;5068114;28;20040;-72
2023/06/15 11:15:35;;;;;;;46.97;43.78;;;25.10;94.60;;;;;;5073461;28;20131;-73
2023/06/15 11:18:04;;;;;;;46.35;43.35;;;25.00;94.30;;;;;;5083909;28;20134;-72
2023/06/15 11:20:59;;;;;;;47.35;44.33;;;25.00;95.70;;;;;;5071483;28;20060;-72
2023/06/15 11:23:32;;;;;;;47.60;44.38;;;24.40;97.40;;;;;;5067951;28;20651;-72
2023/06/15 11:26:01;;;;;;;48.17;44.97;;;24.60;96.60;;;;;;5085032;28;20630;-72
2023/06/15 11:28:33;;;;;;;48.97;45.88;;;25.10;94.50;;;;;;5069302;28;20589;-72
2023/06/15 11:31:06;;;;;;;49.28;46.08;;;25.40;93.70;;;;;;5066772;28;20508;-72
2023/06/15 11:33:36;;;;;;;49.28;46.08;;;25.40;93.50;;;;;;5086107;28;20537;-72
2023/06/15 11:36:06;;;;;;;50.47;47.28;;;25.10;92.30;;;;;;5085269;28;20513;-72
2023/06/15 11:38:33;;;;;;;49.03;45.70;;;24.80;92.50;;;;;;5086784;28;20120;-72
2023/06/15 11:41:05;;;;;;;49.72;46.42;;;24.70;93.60;;;;;;5084769;28;20043;-71
2023/06/15 11:43:40;;;;;;;45.55;42.83;;;25.10;91.80;;;;;;5085062;28;20044;-72
2023/06/15 11:46:14;;;;;;;47.65;44.75;;;25.40;93.50;;;;;;5087864;28;20051;-73
2023/06/15 11:48:44;;;;;;;44.60;41.90;;;25.20;92.20;;;;;;5068829;28;20527;-73
2023/06/15 11:51:12;;;;;;;47.55;44.30;;;25.10;91.60;;;;;;5062805;28;20115;-73
2023/06/15 11:53:40;;;;;;;47.38;44.58;;;24.90;91.90;;;;;;5091083;28;20101;-72
2023/06/15 11:56:15;;;;;;;47.60;44.70;;;24.60;92.70;;;;;;5080672;28;20047;-70
2023/06/15 11:58:47;;;;;;;49.78;46.50;;;24.50;92.30;;;;;;5070405;28;20138;-72
2023/06/15 12:01:15;;;;;;;50.70;47.45;;;24.30;92.80;;;;;;5069056;28;20647;-72
2023/06/15 12:03:49;;;;;;;45.33;42.33;;;24.70;93.50;;;;;;5069143;28;20077;-71
2023/06/15 12:06:20;;;;;;;51.22;47.83;;;24.00;92.20;;;;;;5086459;28;20058;-72
2023/06/15 12:08:54;;;;;;;50.60;47.33;;;22.90;94.20;;;;;;5070566;28;20101;-72
2023/06/15 12:11:22;;;;;;;51.13;47.83;;;23.50;93.10;;;;;;5069635;28;20077;-72
2023/06/15 12:13:48;;;;;;;52.13;48.45;;;24.00;96.10;;;;;;5086125;28;20039;-72
2023/06/15 12:16:16;;;;;;;54.70;51.05;;;24.80;93.60;;;;;;5053387;28;20040;-72
2023/06/15 12:18:43;;;;;;;52.55;49.10;;;24.10;92.90;;;;;;5082560;28;20105;-72
2023/06/15 12:21:10;;;;;;;52.35;49.05;;;24.10;91.60;;;;;;5071298;28;20044;-73
2023/06/15 12:23:37;;;;;;;54.40;51.00;;;24.60;92.50;;;;;;5068852;28;20077;-73
2023/06/15 12:26:04;;;;;;;51.22;48.03;;;25.20;93.90;;;;;;5083344;28;20701;-72
2023/06/15 12:28:32;;;;;;;47.95;44.97;;;24.60;92.30;;;;;;5068502;28;20566;-73
2023/06/15 12:31:04;;;;;;;49.45;46.30;;;23.80;92.70;;;;;;5082579;28;20040;-73
2023/06/15 12:33:38;;;;;;;49.00;46.03;;;23.50;93.90;;;;;;5048922;28;20131;-72
2023/06/15 12:36:12;;;;;;;49.15;46.22;;;23.50;94.70;;;;;;5062533;28;20149;-72
2023/06/15 12:38:42;;;;;;;45.60;42.60;;;24.00;94.50;;;;;;5080016;28;20052;-73